createdAt,value
2023-05-10T00:02:23.067Z,16.30
2023-05-10T00:04:50.869Z,14.50
2023-05-10T00:07:18.997Z,13.90
2023-05-10T00:09:46.802Z,17.63
2023-05-10T00:12:15.952Z,14.00
2023-05-10T00:14:43.773Z,17.63
2023-05-10T00:17:11.614Z,18.15
2023-05-10T00:19:39.370Z,17.02
2023-05-10T00:22:07.159Z,18.45
2023-05-10T00:24:35.002Z,22.25
2023-05-10T00:27:05.218Z,19.88
2023-05-10T00:29:34.871Z,19.17
2023-05-10T00:32:02.738Z,20.85
2023-05-10T00:34:30.494Z,18.73
2023-05-10T00:36:58.288Z,23.98
2023-05-10T00:39:27.412Z,27.08
2023-05-10T00:41:55.233Z,23.63
2023-05-10T00:44:22.985Z,20.33
2023-05-10T00:46:52.238Z,24.63
2023-05-10T00:49:20.231Z,28.02
2023-05-10T00:51:48.008Z,22.08
2023-05-10T00:54:17.031Z,27.20
2023-05-10T00:56:49.523Z,34.20
2023-05-10T00:59:18.784Z,24.23
2023-05-10T01:01:47.056Z,25.50
2023-05-10T01:04:17.357Z,48.25
2023-05-10T01:06:45.612Z,26.50
2023-05-10T01:09:13.749Z,24.42
2023-05-10T01:11:42.231Z,27.77
2023-05-10T01:14:10.606Z,33.20
2023-05-10T01:16:40.358Z,37.25
2023-05-10T01:19:13.804Z,30.65
2023-05-10T01:21:50.551Z,39.25
2023-05-10T01:24:54.201Z,24.85
2023-05-10T01:27:49.823Z,35.65
2023-05-10T01:30:45.008Z,52.00
2023-05-10T01:33:20.343Z,23.83
2023-05-10T01:35:57.599Z,22.73
2023-05-10T01:38:34.421Z,20.00
2023-05-10T01:41:12.570Z,27.92
2023-05-10T01:43:48.399Z,28.65
2023-05-10T01:46:19.871Z,33.55
2023-05-10T01:48:53.551Z,32.97
2023-05-10T01:51:26.158Z,28.15
2023-05-10T01:54:00.133Z,20.70
2023-05-10T01:56:30.105Z,25.20
2023-05-10T01:58:58.904Z,35.20
2023-05-10T02:01:28.178Z,28.98
2023-05-10T02:03:59.291Z,32.05
2023-05-10T02:06:29.086Z,22.20
2023-05-10T02:08:57.716Z,30.00
2023-05-10T02:11:27.187Z,21.80
2023-05-10T02:13:57.175Z,35.28
2023-05-10T02:16:28.380Z,28.20
2023-05-10T02:19:00.270Z,27.20
2023-05-10T02:21:29.346Z,24.73
2023-05-10T02:23:58.565Z,26.38
2023-05-10T02:26:27.368Z,27.08
2023-05-10T02:28:56.961Z,26.50
2023-05-10T02:31:25.295Z,38.75
2023-05-10T02:33:54.405Z,36.95
2023-05-10T02:36:24.911Z,25.13
2023-05-10T02:38:54.853Z,24.75
2023-05-10T02:41:23.809Z,32.65
2023-05-10T02:43:53.758Z,40.85
2023-05-10T02:46:21.641Z,26.83
2023-05-10T02:48:49.522Z,26.52
2023-05-10T02:51:20.225Z,35.88
2023-05-10T02:53:53.067Z,38.40
2023-05-10T02:56:27.765Z,39.10
2023-05-10T02:59:01.372Z,28.85
2023-05-10T03:01:29.173Z,41.58
2023-05-10T03:03:57.130Z,30.45
2023-05-10T03:06:25.034Z,28.33
2023-05-10T03:08:54.225Z,40.05
2023-05-10T03:11:35.641Z,40.55
2023-05-10T03:14:14.476Z,33.42
2023-05-10T03:16:47.883Z,29.80
2023-05-10T03:19:20.559Z,35.50
2023-05-10T03:21:53.230Z,31.75
2023-05-10T03:24:25.299Z,38.53
2023-05-10T03:26:56.457Z,35.00
2023-05-10T03:29:25.096Z,33.30
2023-05-10T03:31:53.058Z,33.42
2023-05-10T03:34:25.640Z,27.40
2023-05-10T03:36:53.588Z,32.95
2023-05-10T03:39:22.782Z,39.28
2023-05-10T03:41:50.509Z,26.95
2023-05-10T03:44:18.364Z,24.70
2023-05-10T03:46:46.585Z,34.45
2023-05-10T03:49:14.382Z,33.30
2023-05-10T03:51:42.326Z,35.17
2023-05-10T03:54:10.077Z,29.60
2023-05-10T03:56:39.283Z,42.92
2023-05-10T03:59:08.445Z,43.92
2023-05-10T04:01:36.825Z,50.88
2023-05-10T04:04:04.782Z,28.70
2023-05-10T04:06:33.029Z,32.75
2023-05-10T04:09:04.926Z,44.67
2023-05-10T04:11:32.707Z,35.28
2023-05-10T04:14:01.810Z,38.25
2023-05-10T04:16:29.521Z,48.80
2023-05-10T04:18:57.365Z,43.05
2023-05-10T04:21:25.589Z,32.33
2023-05-10T04:23:53.363Z,39.83
2023-05-10T04:26:21.165Z,43.80
2023-05-10T04:28:48.976Z,49.33
2023-05-10T04:31:18.232Z,36.15
2023-05-10T04:33:45.964Z,39.75
2023-05-10T04:36:13.727Z,49.17
2023-05-10T04:38:41.466Z,44.83
2023-05-10T04:41:10.179Z,51.85
2023-05-10T04:43:41.447Z,44.28
2023-05-10T04:46:09.283Z,55.83
2023-05-10T04:48:38.408Z,59.35
2023-05-10T04:51:07.482Z,54.22
2023-05-10T04:53:35.676Z,44.75
2023-05-10T04:56:03.515Z,48.63
2023-05-10T04:58:31.529Z,50.42
2023-05-10T05:00:59.595Z,49.08
2023-05-10T05:03:27.625Z,40.03
2023-05-10T05:05:56.908Z,46.67
2023-05-10T05:08:25.045Z,50.95
2023-05-10T05:10:53.128Z,47.85
2023-05-10T05:13:20.980Z,44.35
2023-05-10T05:15:48.854Z,54.78
2023-05-10T05:18:16.663Z,47.67
2023-05-10T05:20:44.435Z,62.17
2023-05-10T05:23:13.679Z,53.47
2023-05-10T05:25:41.610Z,59.60
2023-05-10T05:28:09.456Z,52.85
2023-05-10T05:30:37.466Z,54.58
2023-05-10T05:33:05.410Z,52.30
2023-05-10T05:35:33.382Z,50.17
2023-05-10T05:38:01.311Z,52.90
2023-05-10T05:40:30.575Z,58.45
2023-05-10T05:42:58.426Z,54.83
2023-05-10T05:45:26.215Z,60.85
2023-05-10T05:47:54.121Z,56.10
2023-05-10T05:50:21.860Z,48.05
2023-05-10T05:52:49.627Z,49.10
2023-05-10T05:55:17.711Z,58.80
2023-05-10T05:57:47.030Z,52.47
2023-05-10T06:00:16.328Z,51.33
2023-05-10T06:02:44.171Z,54.97
2023-05-10T06:05:11.934Z,54.55
2023-05-10T06:07:40.697Z,51.22
2023-05-10T06:10:09.442Z,48.17
2023-05-10T06:12:37.465Z,56.00
2023-05-10T06:15:07.617Z,54.75
2023-05-10T06:17:35.557Z,52.72
2023-05-10T06:20:03.464Z,60.35
2023-05-10T06:22:31.166Z,48.58
2023-05-10T06:24:58.869Z,51.88
2023-05-10T06:27:26.956Z,48.03
2023-05-10T06:30:02.148Z,50.78
2023-05-10T06:35:07.392Z,54.03
2023-05-10T06:37:36.590Z,51.25
2023-05-10T06:40:05.002Z,54.75
2023-05-10T06:42:33.075Z,55.40
2023-05-10T06:45:00.805Z,53.70
2023-05-10T06:47:28.781Z,52.22
2023-05-10T06:49:57.937Z,56.15
2023-05-10T06:52:25.994Z,56.90
2023-05-10T06:54:53.740Z,52.50
2023-05-10T06:57:31.112Z,60.90
2023-05-10T06:59:59.918Z,53.35
2023-05-10T07:02:28.125Z,58.63
2023-05-10T07:04:59.462Z,53.22
2023-05-10T07:07:28.804Z,58.22
2023-05-10T07:09:57.592Z,53.83
2023-05-10T07:12:25.541Z,53.40
2023-05-10T07:14:53.325Z,56.15
2023-05-10T07:17:21.207Z,60.00
2023-05-10T07:19:49.419Z,66.43
2023-05-10T07:22:19.066Z,60.38
2023-05-10T07:24:47.155Z,65.80
2023-05-10T07:27:15.026Z,64.20
2023-05-10T07:29:43.173Z,60.20
2023-05-10T07:32:10.970Z,57.08
2023-05-10T07:34:38.840Z,56.17
2023-05-10T07:37:07.183Z,55.60
2023-05-10T07:39:36.612Z,53.08
2023-05-10T07:42:04.867Z,52.78
2023-05-10T07:44:32.598Z,55.13
2023-05-10T07:47:00.476Z,48.65
2023-05-10T07:49:28.317Z,45.90
2023-05-10T07:51:56.046Z,44.88
2023-05-10T07:54:23.773Z,45.88
2023-05-10T07:56:53.180Z,49.83
2023-05-10T07:59:21.031Z,48.15
2023-05-10T08:01:48.799Z,46.22
2023-05-10T08:04:17.056Z,49.08
2023-05-10T08:06:44.936Z,47.20
2023-05-10T08:09:12.992Z,49.25
2023-05-10T08:11:40.821Z,45.38
2023-05-10T08:14:10.033Z,45.20
2023-05-10T08:16:38.387Z,46.55
2023-05-10T08:19:06.449Z,46.55
2023-05-10T08:21:34.485Z,46.75
2023-05-10T08:24:02.466Z,42.25
2023-05-10T08:26:30.404Z,45.10
2023-05-10T08:28:58.199Z,40.55
2023-05-10T08:31:27.435Z,36.83
2023-05-10T08:33:55.198Z,35.95
2023-05-10T08:36:25.101Z,35.35
2023-05-10T08:38:53.639Z,34.25
2023-05-10T08:41:22.796Z,38.10
2023-05-10T08:43:52.024Z,38.55
2023-05-10T08:46:22.033Z,34.13
2023-05-10T08:48:53.453Z,33.35
2023-05-10T08:51:24.783Z,32.10
2023-05-10T08:53:52.745Z,37.22
2023-05-10T08:56:21.366Z,33.38
2023-05-10T08:58:50.068Z,33.10
2023-05-10T09:01:19.156Z,30.98
2023-05-10T09:03:48.410Z,31.42
2023-05-10T09:06:17.878Z,32.20
2023-05-10T09:08:47.106Z,32.22
2023-05-10T09:11:17.188Z,31.63
2023-05-10T09:13:45.478Z,31.88
2023-05-10T09:18:48.179Z,40.65
2023-05-10T09:21:17.661Z,29.08
2023-05-10T09:23:48.114Z,30.90
2023-05-10T09:26:16.510Z,29.33
2023-05-10T09:28:54.958Z,30.27
2023-05-10T09:31:23.170Z,30.17
2023-05-10T09:33:51.920Z,30.83
2023-05-10T09:36:21.354Z,29.35
2023-05-10T09:38:50.087Z,28.30
2023-05-10T09:41:19.546Z,27.02
2023-05-10T09:43:47.387Z,24.33
2023-05-10T09:46:15.645Z,29.05
2023-05-10T09:48:45.305Z,25.85
2023-05-10T09:51:13.228Z,25.42
2023-05-10T09:53:42.687Z,25.13
2023-05-10T09:56:10.783Z,27.25
2023-05-10T09:58:40.106Z,27.83
2023-05-10T10:01:14.044Z,30.95
2023-05-10T10:03:44.910Z,30.73
2023-05-10T10:06:26.481Z,30.85
2023-05-10T10:08:59.195Z,30.02
2023-05-10T10:11:27.052Z,27.75
2023-05-10T10:13:54.855Z,28.95
2023-05-10T10:16:23.080Z,24.40
2023-05-10T10:18:51.446Z,26.80
2023-05-10T10:21:19.723Z,28.42
2023-05-10T10:23:48.607Z,25.20
2023-05-10T10:26:19.762Z,29.23
2023-05-10T10:28:54.016Z,24.83
2023-05-10T10:31:30.587Z,24.90
2023-05-10T10:34:04.000Z,25.17
2023-05-10T10:36:32.307Z,25.23
2023-05-10T10:39:05.131Z,25.63
2023-05-10T10:41:36.051Z,26.83
2023-05-10T10:44:27.304Z,23.30
2023-05-10T10:47:02.675Z,22.45
2023-05-10T10:49:33.641Z,22.17
2023-05-10T10:52:24.401Z,23.95
2023-05-10T10:54:53.594Z,26.48
2023-05-10T10:57:23.987Z,27.27
2023-05-10T11:00:02.574Z,27.48
2023-05-10T11:02:46.858Z,25.17
2023-05-10T11:05:42.896Z,24.75
2023-05-10T11:08:18.301Z,25.40
2023-05-10T11:10:53.910Z,20.52
2023-05-10T11:13:31.895Z,26.80
2023-05-10T11:16:00.747Z,24.92
2023-05-10T11:18:29.803Z,28.33
2023-05-10T11:21:00.828Z,26.17
2023-05-10T11:23:33.408Z,27.23
2023-05-10T11:26:02.257Z,32.40
2023-05-10T11:28:31.408Z,25.48
2023-05-10T11:30:59.716Z,30.92
2023-05-10T11:33:27.449Z,30.13
2023-05-10T11:35:55.129Z,25.67
2023-05-10T11:38:22.873Z,27.35
2023-05-10T11:40:54.287Z,25.50
2023-05-10T11:43:26.573Z,23.37
2023-05-10T11:48:25.137Z,20.15
2023-05-10T11:50:53.801Z,20.08
2023-05-10T11:53:23.728Z,22.52
2023-05-10T11:55:52.570Z,20.08
2023-05-10T11:58:22.239Z,19.95
2023-05-10T12:00:50.436Z,16.60
2023-05-10T12:03:19.993Z,17.48
2023-05-10T12:05:48.012Z,16.42
2023-05-10T12:08:17.234Z,16.88
2023-05-10T12:10:45.008Z,17.42
2023-05-10T12:13:16.714Z,12.95
2023-05-10T12:15:46.640Z,14.98
2023-05-10T12:18:18.671Z,12.02
2023-05-10T12:20:47.878Z,12.65
2023-05-10T12:23:15.913Z,10.30
2023-05-10T12:25:44.330Z,9.95
2023-05-10T12:28:12.152Z,10.07
2023-05-10T12:30:40.666Z,10.68
2023-05-10T12:33:15.969Z,10.02
2023-05-10T12:35:50.333Z,9.88
2023-05-10T12:38:30.567Z,9.93
2023-05-10T12:40:59.419Z,8.82
2023-05-10T12:43:27.451Z,10.15
2023-05-10T12:45:55.678Z,8.40
2023-05-10T12:48:23.802Z,9.13
2023-05-10T12:50:52.974Z,7.80
2023-05-10T12:53:20.830Z,7.68
2023-05-10T12:55:50.445Z,7.75
2023-05-10T12:58:34.490Z,9.23
2023-05-10T13:01:05.900Z,10.57
2023-05-10T13:03:34.058Z,8.60
2023-05-10T13:06:12.590Z,9.55
2023-05-10T13:08:41.948Z,7.47
2023-05-10T13:11:09.872Z,9.63
2023-05-10T13:13:38.303Z,10.43
2023-05-10T13:16:06.806Z,9.55
2023-05-10T13:18:34.755Z,12.18
2023-05-10T13:21:05.056Z,11.48
2023-05-10T13:23:33.300Z,10.40
2023-05-10T13:26:01.156Z,10.52
2023-05-10T13:28:29.020Z,9.40
2023-05-10T13:30:56.956Z,10.75
2023-05-10T13:33:25.106Z,10.52
2023-05-10T13:35:56.403Z,9.00
2023-05-10T13:38:25.953Z,9.23
2023-05-10T13:40:54.360Z,9.60
2023-05-10T13:43:22.246Z,8.27
2023-05-10T13:45:50.107Z,8.88
2023-05-10T13:48:18.001Z,13.02
2023-05-10T13:50:48.812Z,7.93
2023-05-10T13:53:16.718Z,11.00
2023-05-10T13:55:45.945Z,11.18
2023-05-10T13:58:13.884Z,7.57
2023-05-10T14:00:41.887Z,13.52
2023-05-10T14:03:12.082Z,11.20
2023-05-10T14:05:40.550Z,11.95
2023-05-10T14:08:11.955Z,10.88
2023-05-10T14:10:43.069Z,9.35
2023-05-10T14:13:12.282Z,7.10
2023-05-10T14:15:40.190Z,7.18
2023-05-10T14:18:10.018Z,7.68
2023-05-10T14:20:38.222Z,8.57
2023-05-10T14:23:06.001Z,8.02
2023-05-10T14:25:34.171Z,9.75
2023-05-10T14:28:02.110Z,9.40
2023-05-10T14:30:31.662Z,8.48
2023-05-10T14:32:59.669Z,9.02
2023-05-10T14:35:29.628Z,9.32
2023-05-10T14:37:58.811Z,9.32
2023-05-10T14:40:27.076Z,9.98
2023-05-10T14:42:55.109Z,10.40
2023-05-10T14:45:23.598Z,10.68
2023-05-10T14:47:53.041Z,9.70
2023-05-10T14:50:35.164Z,10.52
2023-05-10T14:53:04.181Z,10.52
2023-05-10T14:55:32.189Z,11.20
2023-05-10T14:58:00.282Z,10.93
2023-05-10T15:00:29.875Z,10.57
2023-05-10T15:02:59.932Z,11.40
2023-05-10T15:05:28.364Z,11.57
2023-05-10T15:07:56.904Z,11.63
2023-05-10T15:10:26.827Z,11.70
2023-05-10T15:12:55.959Z,17.55
2023-05-10T15:15:23.848Z,15.43
2023-05-10T15:17:51.854Z,13.52
2023-05-10T15:20:21.185Z,14.43
2023-05-10T15:22:49.066Z,9.73
2023-05-10T15:25:17.497Z,6.57
2023-05-10T15:27:45.694Z,6.07
2023-05-10T15:30:14.523Z,6.75
2023-05-10T15:32:43.863Z,6.80
2023-05-10T15:35:12.289Z,5.88
2023-05-10T15:37:41.694Z,2.65
2023-05-10T15:40:10.512Z,4.53
2023-05-10T15:42:38.341Z,4.60
2023-05-10T15:45:07.159Z,4.60
2023-05-10T15:47:34.940Z,5.40
2023-05-10T15:50:02.891Z,4.70
2023-05-10T15:52:30.802Z,4.80
2023-05-10T15:54:59.984Z,6.05
2023-05-10T15:57:27.875Z,4.78
2023-05-10T15:59:56.357Z,6.50
2023-05-10T16:02:24.257Z,4.50
2023-05-10T16:04:52.116Z,4.93
2023-05-10T16:07:20.055Z,5.10
2023-05-10T16:09:49.458Z,4.90
2023-05-10T16:12:18.910Z,5.18
2023-05-10T16:14:46.994Z,6.00
2023-05-10T16:17:15.726Z,7.35
2023-05-10T16:19:43.775Z,6.85
2023-05-10T16:22:11.590Z,6.68
2023-05-10T16:24:39.510Z,8.43
2023-05-10T16:27:07.303Z,11.30
2023-05-10T16:29:38.242Z,10.52
2023-05-10T16:32:06.528Z,11.75
2023-05-10T16:34:34.333Z,9.55
2023-05-10T16:37:02.199Z,8.77
2023-05-10T16:39:30.254Z,7.93
2023-05-10T16:41:58.184Z,10.40
2023-05-10T16:44:26.293Z,8.10
2023-05-10T16:46:58.523Z,8.52
2023-05-10T16:49:26.581Z,9.55
2023-05-10T16:51:54.523Z,8.95
2023-05-10T16:54:22.902Z,7.75
2023-05-10T16:56:50.866Z,7.30
2023-05-10T16:59:18.746Z,8.40
2023-05-10T17:01:47.072Z,8.52
2023-05-10T17:04:17.782Z,8.93
2023-05-10T17:06:45.744Z,9.75
2023-05-10T17:09:42.809Z,10.82
2023-05-10T17:12:44.346Z,8.98
2023-05-10T17:15:12.970Z,9.77
2023-05-10T17:17:40.905Z,10.75
2023-05-10T17:20:11.472Z,11.77
2023-05-10T17:22:39.213Z,11.10
2023-05-10T17:25:08.264Z,11.55
2023-05-10T17:27:39.152Z,10.82
2023-05-10T17:30:08.243Z,9.40
2023-05-10T17:32:36.166Z,11.65
2023-05-10T17:35:05.179Z,10.32
2023-05-10T17:37:34.445Z,12.65
2023-05-10T17:40:03.516Z,11.82
2023-05-10T17:42:34.197Z,12.27
2023-05-10T17:45:05.165Z,11.30
2023-05-10T17:47:34.140Z,15.35
2023-05-10T17:50:02.099Z,15.15
2023-05-10T17:52:38.561Z,15.00
2023-05-10T17:55:09.243Z,15.35
2023-05-10T17:57:38.880Z,12.70
2023-05-10T18:00:08.813Z,14.20
2023-05-10T18:02:36.980Z,13.45
2023-05-10T18:05:05.114Z,11.48
2023-05-10T18:07:33.073Z,11.07
2023-05-10T18:10:04.434Z,10.98
2023-05-10T18:12:33.716Z,14.27
2023-05-10T18:15:11.673Z,14.50
2023-05-10T18:17:42.722Z,10.45
2023-05-10T18:20:11.645Z,13.00
2023-05-10T18:22:42.648Z,13.45
2023-05-10T18:25:11.035Z,12.10
2023-05-10T18:27:40.352Z,9.30
2023-05-10T18:30:10.165Z,14.38
2023-05-10T18:32:41.799Z,12.35
2023-05-10T18:35:10.833Z,12.23
2023-05-10T18:37:39.193Z,11.02
2023-05-10T18:40:09.634Z,12.57
2023-05-10T18:42:38.025Z,11.98
2023-05-10T18:45:08.884Z,9.32
2023-05-10T18:47:36.864Z,10.98
2023-05-10T18:50:05.766Z,11.00
2023-05-10T18:52:38.147Z,11.95
2023-05-10T18:57:40.993Z,12.35
2023-05-10T19:00:12.449Z,11.48
2023-05-10T19:02:41.012Z,13.07
2023-05-10T19:05:09.809Z,11.25
2023-05-10T19:07:38.256Z,15.13
2023-05-10T19:10:07.137Z,14.43
2023-05-10T19:12:35.543Z,14.82
2023-05-10T19:15:03.475Z,14.52
2023-05-10T19:17:32.826Z,14.32
2023-05-10T19:20:01.278Z,15.70
2023-05-10T19:25:01.284Z,16.25
2023-05-10T19:27:32.157Z,17.75
2023-05-10T19:30:01.752Z,15.73
2023-05-10T19:32:33.199Z,14.38
2023-05-10T19:35:01.163Z,16.65
2023-05-10T19:37:29.142Z,17.45
2023-05-10T19:39:57.014Z,21.48
2023-05-10T19:42:24.945Z,18.10
2023-05-10T19:44:52.857Z,17.25
2023-05-10T19:47:20.779Z,19.88
2023-05-10T19:49:50.066Z,19.60
2023-05-10T19:52:17.960Z,21.30
2023-05-10T19:54:45.849Z,21.33
2023-05-10T19:57:14.190Z,16.55
2023-05-10T19:59:42.577Z,20.30
2023-05-10T20:02:10.470Z,15.75
2023-05-10T20:04:38.452Z,20.05
2023-05-10T20:07:07.854Z,17.48
2023-05-10T20:09:35.739Z,15.68
2023-05-10T20:12:35.964Z,22.33
2023-05-10T20:15:19.308Z,33.33
2023-05-10T20:18:11.317Z,19.63
2023-05-10T20:21:31.881Z,22.05
2023-05-10T20:24:22.486Z,24.38
2023-05-10T20:26:50.440Z,28.02
2023-05-10T20:29:18.283Z,28.88
2023-05-10T20:31:46.351Z,20.60
2023-05-10T20:34:14.340Z,19.48
2023-05-10T20:36:42.242Z,20.20
2023-05-10T20:39:17.957Z,25.48
2023-05-10T20:41:45.812Z,24.45
2023-05-10T20:44:14.489Z,20.10
2023-05-10T20:46:42.456Z,20.17
2023-05-10T20:49:10.413Z,22.35
2023-05-10T20:51:38.424Z,21.65
2023-05-10T20:54:06.483Z,22.65
2023-05-10T20:56:37.103Z,21.20
2023-05-10T20:59:05.178Z,27.20
2023-05-10T21:01:33.170Z,25.95
2023-05-10T21:04:01.004Z,21.60
2023-05-10T21:06:28.838Z,22.92
2023-05-10T21:08:56.678Z,33.85
2023-05-10T21:11:24.629Z,36.53
2023-05-10T21:13:53.872Z,25.88
2023-05-10T21:16:21.779Z,23.08
2023-05-10T21:18:49.804Z,28.45
2023-05-10T21:21:17.806Z,32.75
2023-05-10T21:23:47.352Z,37.67
2023-05-10T21:26:15.300Z,40.05
2023-05-10T21:28:43.565Z,23.55
2023-05-10T21:31:12.943Z,26.35
2023-05-10T21:33:40.999Z,26.95
2023-05-10T21:36:16.971Z,33.83
2023-05-10T21:38:45.271Z,31.73
2023-05-10T21:41:13.188Z,31.10
2023-05-10T21:43:41.006Z,39.70
2023-05-10T21:46:15.447Z,41.22
2023-05-10T21:48:43.428Z,47.53
2023-05-10T21:51:11.219Z,35.97
2023-05-10T21:53:39.375Z,33.30
2023-05-10T21:56:07.679Z,29.63
2023-05-10T21:58:35.760Z,40.95
2023-05-10T22:01:03.905Z,35.95
2023-05-10T22:03:33.342Z,40.92
2023-05-10T22:06:01.318Z,39.08
2023-05-10T22:08:29.314Z,31.67
2023-05-10T22:10:57.125Z,32.50
2023-05-10T22:13:24.977Z,35.88
2023-05-10T22:15:52.845Z,54.30
2023-05-10T22:18:21.079Z,50.83
2023-05-10T22:20:50.235Z,53.60
2023-05-10T22:23:18.134Z,32.10
2023-05-10T22:25:45.978Z,32.08
2023-05-10T22:28:13.797Z,37.80
2023-05-10T22:30:42.981Z,42.53
2023-05-10T22:33:10.980Z,37.47
2023-05-10T22:35:38.860Z,36.50
2023-05-10T22:38:08.161Z,51.15
2023-05-10T22:40:36.051Z,40.33
2023-05-10T22:43:03.937Z,45.42
2023-05-10T22:45:32.435Z,36.47
2023-05-10T22:48:00.730Z,42.70
2023-05-10T22:50:29.268Z,39.47
2023-05-10T22:52:57.132Z,40.22
2023-05-10T22:55:26.602Z,41.00
2023-05-10T22:57:54.886Z,52.53
2023-05-10T23:00:22.954Z,40.53
2023-05-10T23:02:51.731Z,39.10
2023-05-10T23:05:19.925Z,49.58
2023-05-10T23:07:53.058Z,40.38
2023-05-10T23:10:20.929Z,55.92
2023-05-10T23:12:52.697Z,36.33
2023-05-10T23:15:20.577Z,35.90
2023-05-10T23:17:48.464Z,56.58
2023-05-10T23:20:16.800Z,59.38
2023-05-10T23:22:44.975Z,42.70
2023-05-10T23:25:12.755Z,42.25
2023-05-10T23:27:40.714Z,43.50
2023-05-10T23:30:11.523Z,40.65
2023-05-10T23:32:39.554Z,56.70
2023-05-10T23:35:08.786Z,43.80
2023-05-10T23:37:37.253Z,47.47
2023-05-10T23:40:05.671Z,45.08
2023-05-10T23:42:33.958Z,48.00
2023-05-10T23:45:01.857Z,49.15
2023-05-10T23:47:31.161Z,70.63
2023-05-10T23:49:58.966Z,51.95
2023-05-10T23:52:26.969Z,50.60
2023-05-10T23:54:55.438Z,42.92
2023-05-10T23:57:23.487Z,40.17
2023-05-10T23:59:51.461Z,38.55
